sensor_id;sensor_type;location;lat;lon;timestamp;P1;durP1;ratioP1;P2;durP2;ratioP2
75772;SDS011;64381;0.000;0.000;2023-05-06T00:02:00;3.40;;;1.50;;
75772;SDS011;64381;0.000;0.000;2023-05-06T00:04:25;3.13;;;1.50;;
75772;SDS011;64381;0.000;0.000;2023-05-06T00:06:50;3.20;;;1.70;;
75772;SDS011;64381;0.000;0.000;2023-05-06T00:09:15;2.90;;;1.27;;
75772;SDS011;64381;0.000;0.000;2023-05-06T00:11:40;2.90;;;1.33;;
75772;SDS011;64381;0.000;0.000;2023-05-06T00:14:06;3.00;;;1.40;;
75772;SDS011;64381;0.000;0.000;2023-05-06T00:16:31;2.80;;;1.30;;
75772;SDS011;64381;0.000;0.000;2023-05-06T00:18:56;2.93;;;1.47;;
75772;SDS011;64381;0.000;0.000;2023-05-06T00:21:21;2.97;;;1.53;;
75772;SDS011;64381;0.000;0.000;2023-05-06T00:23:47;3.33;;;1.70;;
75772;SDS011;64381;0.000;0.000;2023-05-06T00:26:12;3.67;;;1.50;;
75772;SDS011;64381;0.000;0.000;2023-05-06T00:28:37;3.00;;;1.50;;
75772;SDS011;64381;0.000;0.000;2023-05-06T00:31:02;3.30;;;1.60;;
75772;SDS011;64381;0.000;0.000;2023-05-06T00:33:27;3.00;;;1.47;;
75772;SDS011;64381;0.000;0.000;2023-05-06T00:35:53;3.03;;;1.40;;
75772;SDS011;64381;0.000;0.000;2023-05-06T00:38:18;3.40;;;1.50;;
75772;SDS011;64381;0.000;0.000;2023-05-06T00:40:43;3.00;;;1.30;;
75772;SDS011;64381;0.000;0.000;2023-05-06T00:43:09;2.90;;;1.50;;
75772;SDS011;64381;0.000;0.000;2023-05-06T00:45:34;2.90;;;1.50;;
75772;SDS011;64381;0.000;0.000;2023-05-06T00:48:00;2.80;;;1.30;;
75772;SDS011;64381;0.000;0.000;2023-05-06T00:50:25;2.90;;;1.27;;
75772;SDS011;64381;0.000;0.000;2023-05-06T00:52:51;2.80;;;1.20;;
75772;SDS011;64381;0.000;0.000;2023-05-06T00:55:16;2.97;;;1.47;;
75772;SDS011;64381;0.000;0.000;2023-05-06T00:57:42;3.00;;;1.40;;
75772;SDS011;64381;0.000;0.000;2023-05-06T01:00:07;3.23;;;1.50;;
75772;SDS011;64381;0.000;0.000;2023-05-06T01:02:33;3.38;;;1.48;;
75772;SDS011;64381;0.000;0.000;2023-05-06T01:04:58;3.00;;;1.40;;
75772;SDS011;64381;0.000;0.000;2023-05-06T01:07:27;3.13;;;1.30;;
75772;SDS011;64381;0.000;0.000;2023-05-06T01:15:33;2.80;;;1.30;;
75772;SDS011;64381;0.000;0.000;2023-05-06T01:18:03;2.85;;;1.40;;
75772;SDS011;64381;0.000;0.000;2023-05-06T01:20:34;3.03;;;1.42;;
75772;SDS011;64381;0.000;0.000;2023-05-06T01:23:00;3.33;;;1.40;;
75772;SDS011;64381;0.000;0.000;2023-05-06T01:25:25;3.30;;;1.50;;
75772;SDS011;64381;0.000;0.000;2023-05-06T01:27:51;3.10;;;1.40;;
75772;SDS011;64381;0.000;0.000;2023-05-06T01:30:17;3.07;;;1.20;;
75772;SDS011;64381;0.000;0.000;2023-05-06T01:32:47;3.00;;;1.30;;
75772;SDS011;64381;0.000;0.000;2023-05-06T01:35:25;3.03;;;1.30;;
75772;SDS011;64381;0.000;0.000;2023-05-06T01:38:16;2.97;;;1.45;;
75772;SDS011;64381;0.000;0.000;2023-05-06T01:40:55;2.92;;;1.40;;
75772;SDS011;64381;0.000;0.000;2023-05-06T01:43:22;2.88;;;1.33;;
75772;SDS011;64381;0.000;0.000;2023-05-06T01:45:51;2.73;;;1.20;;
75772;SDS011;64381;0.000;0.000;2023-05-06T01:48:20;3.15;;;1.42;;
75772;SDS011;64381;0.000;0.000;2023-05-06T01:50:47;2.95;;;1.30;;
75772;SDS011;64381;0.000;0.000;2023-05-06T01:53:13;2.93;;;1.37;;
75772;SDS011;64381;0.000;0.000;2023-05-06T01:55:38;2.80;;;1.23;;
75772;SDS011;64381;0.000;0.000;2023-05-06T01:58:03;3.17;;;1.40;;
75772;SDS011;64381;0.000;0.000;2023-05-06T02:00:28;3.33;;;1.40;;
75772;SDS011;64381;0.000;0.000;2023-05-06T02:02:54;2.90;;;1.50;;
75772;SDS011;64381;0.000;0.000;2023-05-06T02:05:19;3.43;;;1.50;;
75772;SDS011;64381;0.000;0.000;2023-05-06T02:07:44;3.20;;;1.50;;
75772;SDS011;64381;0.000;0.000;2023-05-06T02:10:09;3.00;;;1.50;;
75772;SDS011;64381;0.000;0.000;2023-05-06T02:12:34;3.10;;;1.50;;
75772;SDS011;64381;0.000;0.000;2023-05-06T02:15:00;3.40;;;1.50;;
75772;SDS011;64381;0.000;0.000;2023-05-06T02:17:25;2.87;;;1.40;;
75772;SDS011;64381;0.000;0.000;2023-05-06T02:19:50;2.93;;;1.23;;
75772;SDS011;64381;0.000;0.000;2023-05-06T02:22:15;2.87;;;1.40;;
75772;SDS011;64381;0.000;0.000;2023-05-06T02:24:40;2.80;;;1.30;;
75772;SDS011;64381;0.000;0.000;2023-05-06T02:27:06;3.20;;;1.60;;
75772;SDS011;64381;0.000;0.000;2023-05-06T02:29:31;2.80;;;1.30;;
75772;SDS011;64381;0.000;0.000;2023-05-06T02:31:56;2.87;;;1.40;;
75772;SDS011;64381;0.000;0.000;2023-05-06T02:34:21;3.00;;;1.30;;
75772;SDS011;64381;0.000;0.000;2023-05-06T02:36:47;2.88;;;1.30;;
75772;SDS011;64381;0.000;0.000;2023-05-06T02:39:12;3.20;;;1.50;;
75772;SDS011;64381;0.000;0.000;2023-05-06T02:41:37;3.30;;;1.40;;
75772;SDS011;64381;0.000;0.000;2023-05-06T02:44:02;3.17;;;1.30;;
75772;SDS011;64381;0.000;0.000;2023-05-06T02:46:28;3.07;;;1.50;;
75772;SDS011;64381;0.000;0.000;2023-05-06T02:48:53;3.20;;;1.50;;
75772;SDS011;64381;0.000;0.000;2023-05-06T02:51:18;3.10;;;1.40;;
75772;SDS011;64381;0.000;0.000;2023-05-06T02:53:43;2.80;;;1.40;;
75772;SDS011;64381;0.000;0.000;2023-05-06T02:56:09;2.73;;;1.33;;
75772;SDS011;64381;0.000;0.000;2023-05-06T02:58:34;2.73;;;1.10;;
75772;SDS011;64381;0.000;0.000;2023-05-06T03:00:59;2.70;;;1.23;;
75772;SDS011;64381;0.000;0.000;2023-05-06T03:03:24;2.97;;;1.40;;
75772;SDS011;64381;0.000;0.000;2023-05-06T03:05:49;2.90;;;1.47;;
75772;SDS011;64381;0.000;0.000;2023-05-06T03:08:15;3.30;;;1.23;;
75772;SDS011;64381;0.000;0.000;2023-05-06T03:10:40;3.33;;;1.50;;
75772;SDS011;64381;0.000;0.000;2023-05-06T03:13:05;3.20;;;1.40;;
75772;SDS011;64381;0.000;0.000;2023-05-06T03:15:30;2.83;;;1.33;;
75772;SDS011;64381;0.000;0.000;2023-05-06T03:17:55;2.63;;;1.30;;
75772;SDS011;64381;0.000;0.000;2023-05-06T03:20:21;3.00;;;1.47;;
75772;SDS011;64381;0.000;0.000;2023-05-06T03:22:46;3.00;;;1.50;;
75772;SDS011;64381;0.000;0.000;2023-05-06T03:25:11;2.70;;;1.33;;
75772;SDS011;64381;0.000;0.000;2023-05-06T03:27:36;2.80;;;1.20;;
75772;SDS011;64381;0.000;0.000;2023-05-06T03:30:02;2.90;;;1.50;;
75772;SDS011;64381;0.000;0.000;2023-05-06T03:32:27;3.35;;;1.40;;
75772;SDS011;64381;0.000;0.000;2023-05-06T03:34:52;2.70;;;1.30;;
75772;SDS011;64381;0.000;0.000;2023-05-06T03:37:18;2.78;;;1.30;;
75772;SDS011;64381;0.000;0.000;2023-05-06T03:39:43;2.83;;;1.20;;
75772;SDS011;64381;0.000;0.000;2023-05-06T03:42:08;3.20;;;1.40;;
75772;SDS011;64381;0.000;0.000;2023-05-06T03:44:33;3.08;;;1.50;;
75772;SDS011;64381;0.000;0.000;2023-05-06T03:46:59;2.90;;;1.48;;
75772;SDS011;64381;0.000;0.000;2023-05-06T03:49:24;3.20;;;1.33;;
75772;SDS011;64381;0.000;0.000;2023-05-06T03:51:49;2.83;;;1.10;;
75772;SDS011;64381;0.000;0.000;2023-05-06T03:54:14;2.90;;;1.40;;
75772;SDS011;64381;0.000;0.000;2023-05-06T03:56:40;2.93;;;1.30;;
75772;SDS011;64381;0.000;0.000;2023-05-06T03:59:05;3.17;;;1.40;;
75772;SDS011;64381;0.000;0.000;2023-05-06T04:01:30;3.10;;;1.40;;
75772;SDS011;64381;0.000;0.000;2023-05-06T04:03:55;3.00;;;1.40;;
75772;SDS011;64381;0.000;0.000;2023-05-06T04:06:20;2.60;;;1.20;;
75772;SDS011;64381;0.000;0.000;2023-05-06T04:08:46;2.97;;;1.30;;
75772;SDS011;64381;0.000;0.000;2023-05-06T04:11:11;3.10;;;1.40;;
75772;SDS011;64381;0.000;0.000;2023-05-06T04:13:36;2.77;;;1.17;;
75772;SDS011;64381;0.000;0.000;2023-05-06T04:16:01;3.03;;;1.40;;
75772;SDS011;64381;0.000;0.000;2023-05-06T04:18:27;2.90;;;1.30;;
75772;SDS011;64381;0.000;0.000;2023-05-06T04:20:52;2.80;;;1.20;;
75772;SDS011;64381;0.000;0.000;2023-05-06T04:23:17;3.30;;;1.30;;
75772;SDS011;64381;0.000;0.000;2023-05-06T04:25:44;2.70;;;1.30;;
75772;SDS011;64381;0.000;0.000;2023-05-06T04:28:10;2.50;;;1.20;;
75772;SDS011;64381;0.000;0.000;2023-05-06T04:30:35;2.77;;;1.27;;
75772;SDS011;64381;0.000;0.000;2023-05-06T04:33:00;3.40;;;1.30;;
75772;SDS011;64381;0.000;0.000;2023-05-06T04:35:26;2.90;;;1.30;;
75772;SDS011;64381;0.000;0.000;2023-05-06T04:37:51;2.90;;;1.30;;
75772;SDS011;64381;0.000;0.000;2023-05-06T04:40:16;2.90;;;1.30;;
75772;SDS011;64381;0.000;0.000;2023-05-06T04:42:41;2.80;;;1.20;;
75772;SDS011;64381;0.000;0.000;2023-05-06T04:45:07;2.93;;;1.27;;
75772;SDS011;64381;0.000;0.000;2023-05-06T04:47:32;2.70;;;1.20;;
75772;SDS011;64381;0.000;0.000;2023-05-06T04:49:58;2.93;;;1.43;;
75772;SDS011;64381;0.000;0.000;2023-05-06T04:52:23;2.60;;;1.10;;
75772;SDS011;64381;0.000;0.000;2023-05-06T04:54:48;2.60;;;1.10;;
75772;SDS011;64381;0.000;0.000;2023-05-06T04:57:13;2.87;;;1.27;;
75772;SDS011;64381;0.000;0.000;2023-05-06T04:59:38;2.80;;;1.20;;
75772;SDS011;64381;0.000;0.000;2023-05-06T05:02:04;3.50;;;1.50;;
75772;SDS011;64381;0.000;0.000;2023-05-06T05:04:29;3.10;;;1.40;;
75772;SDS011;64381;0.000;0.000;2023-05-06T05:06:54;3.00;;;1.30;;
75772;SDS011;64381;0.000;0.000;2023-05-06T05:09:19;2.80;;;1.13;;
75772;SDS011;64381;0.000;0.000;2023-05-06T05:11:45;2.70;;;1.30;;
75772;SDS011;64381;0.000;0.000;2023-05-06T05:14:10;2.60;;;1.23;;
75772;SDS011;64381;0.000;0.000;2023-05-06T05:16:35;3.17;;;1.40;;
75772;SDS011;64381;0.000;0.000;2023-05-06T05:19:01;3.17;;;1.40;;
75772;SDS011;64381;0.000;0.000;2023-05-06T05:21:26;2.73;;;1.20;;
75772;SDS011;64381;0.000;0.000;2023-05-06T05:23:51;2.90;;;1.30;;
75772;SDS011;64381;0.000;0.000;2023-05-06T05:26:16;2.90;;;1.30;;
75772;SDS011;64381;0.000;0.000;2023-05-06T05:28:41;3.30;;;1.63;;
75772;SDS011;64381;0.000;0.000;2023-05-06T05:31:07;2.90;;;1.33;;
75772;SDS011;64381;0.000;0.000;2023-05-06T05:33:32;3.00;;;1.40;;
75772;SDS011;64381;0.000;0.000;2023-05-06T05:35:57;2.70;;;1.13;;
75772;SDS011;64381;0.000;0.000;2023-05-06T05:38:22;2.60;;;1.20;;
75772;SDS011;64381;0.000;0.000;2023-05-06T05:40:48;2.67;;;1.17;;
75772;SDS011;64381;0.000;0.000;2023-05-06T05:43:13;3.00;;;1.30;;
75772;SDS011;64381;0.000;0.000;2023-05-06T05:45:38;2.80;;;1.10;;
75772;SDS011;64381;0.000;0.000;2023-05-06T05:48:03;3.00;;;1.37;;
75772;SDS011;64381;0.000;0.000;2023-05-06T05:50:29;3.00;;;1.27;;
75772;SDS011;64381;0.000;0.000;2023-05-06T05:52:54;2.53;;;1.10;;
75772;SDS011;64381;0.000;0.000;2023-05-06T05:55:19;2.70;;;1.10;;
75772;SDS011;64381;0.000;0.000;2023-05-06T05:57:45;2.87;;;1.30;;
75772;SDS011;64381;0.000;0.000;2023-05-06T06:00:10;2.60;;;1.17;;
75772;SDS011;64381;0.000;0.000;2023-05-06T06:02:36;2.72;;;1.30;;
75772;SDS011;64381;0.000;0.000;2023-05-06T06:05:01;2.60;;;1.25;;
75772;SDS011;64381;0.000;0.000;2023-05-06T06:07:26;3.25;;;1.40;;
75772;SDS011;64381;0.000;0.000;2023-05-06T06:09:52;2.67;;;1.17;;
75772;SDS011;64381;0.000;0.000;2023-05-06T06:12:17;2.87;;;1.20;;
75772;SDS011;64381;0.000;0.000;2023-05-06T06:14:42;2.60;;;1.10;;
75772;SDS011;64381;0.000;0.000;2023-05-06T06:17:07;2.60;;;1.17;;
75772;SDS011;64381;0.000;0.000;2023-05-06T06:19:32;2.80;;;1.30;;
75772;SDS011;64381;0.000;0.000;2023-05-06T06:21:58;3.37;;;1.23;;
75772;SDS011;64381;0.000;0.000;2023-05-06T06:24:23;2.90;;;1.40;;
75772;SDS011;64381;0.000;0.000;2023-05-06T06:26:48;2.70;;;1.27;;
75772;SDS011;64381;0.000;0.000;2023-05-06T06:29:13;2.63;;;1.13;;
75772;SDS011;64381;0.000;0.000;2023-05-06T06:31:39;2.70;;;1.30;;
75772;SDS011;64381;0.000;0.000;2023-05-06T06:34:04;2.80;;;1.33;;
75772;SDS011;64381;0.000;0.000;2023-05-06T06:36:29;2.50;;;1.20;;
75772;SDS011;64381;0.000;0.000;2023-05-06T06:38:54;2.93;;;1.20;;
75772;SDS011;64381;0.000;0.000;2023-05-06T06:41:19;2.63;;;1.20;;
75772;SDS011;64381;0.000;0.000;2023-05-06T06:43:45;2.60;;;1.20;;
75772;SDS011;64381;0.000;0.000;2023-05-06T06:46:10;2.93;;;1.20;;
75772;SDS011;64381;0.000;0.000;2023-05-06T06:48:35;2.80;;;1.20;;
75772;SDS011;64381;0.000;0.000;2023-05-06T06:51:00;3.00;;;1.20;;
75772;SDS011;64381;0.000;0.000;2023-05-06T06:53:25;2.90;;;1.30;;
75772;SDS011;64381;0.000;0.000;2023-05-06T06:55:51;2.50;;;1.10;;
75772;SDS011;64381;0.000;0.000;2023-05-06T06:58:16;3.03;;;1.40;;
75772;SDS011;64381;0.000;0.000;2023-05-06T07:00:41;2.83;;;1.30;;
75772;SDS011;64381;0.000;0.000;2023-05-06T07:03:06;2.70;;;1.23;;
75772;SDS011;64381;0.000;0.000;2023-05-06T07:05:31;2.80;;;1.27;;
75772;SDS011;64381;0.000;0.000;2023-05-06T07:07:57;2.73;;;1.40;;
75772;SDS011;64381;0.000;0.000;2023-05-06T07:10:22;2.70;;;1.20;;
75772;SDS011;64381;0.000;0.000;2023-05-06T07:12:47;2.63;;;1.10;;
75772;SDS011;64381;0.000;0.000;2023-05-06T07:15:12;3.10;;;1.20;;
75772;SDS011;64381;0.000;0.000;2023-05-06T07:17:37;2.93;;;1.30;;
75772;SDS011;64381;0.000;0.000;2023-05-06T07:20:03;2.70;;;1.20;;
75772;SDS011;64381;0.000;0.000;2023-05-06T07:22:28;2.60;;;1.20;;
75772;SDS011;64381;0.000;0.000;2023-05-06T07:24:54;2.50;;;1.10;;
75772;SDS011;64381;0.000;0.000;2023-05-06T07:27:19;2.50;;;1.20;;
75772;SDS011;64381;0.000;0.000;2023-05-06T07:29:44;2.50;;;1.30;;
75772;SDS011;64381;0.000;0.000;2023-05-06T07:32:09;2.60;;;1.10;;
75772;SDS011;64381;0.000;0.000;2023-05-06T07:34:35;2.77;;;1.00;;
75772;SDS011;64381;0.000;0.000;2023-05-06T07:37:00;2.67;;;1.20;;
75772;SDS011;64381;0.000;0.000;2023-05-06T07:39:25;2.50;;;1.10;;
75772;SDS011;64381;0.000;0.000;2023-05-06T07:41:50;2.80;;;1.20;;
75772;SDS011;64381;0.000;0.000;2023-05-06T07:44:15;3.10;;;1.30;;
75772;SDS011;64381;0.000;0.000;2023-05-06T07:46:41;2.60;;;1.03;;
75772;SDS011;64381;0.000;0.000;2023-05-06T07:49:06;2.70;;;1.10;;
75772;SDS011;64381;0.000;0.000;2023-05-06T07:51:31;2.60;;;1.17;;
75772;SDS011;64381;0.000;0.000;2023-05-06T07:53:56;2.60;;;1.10;;
75772;SDS011;64381;0.000;0.000;2023-05-06T07:56:22;2.53;;;1.10;;
75772;SDS011;64381;0.000;0.000;2023-05-06T07:58:47;2.60;;;1.20;;
75772;SDS011;64381;0.000;0.000;2023-05-06T08:01:12;2.80;;;1.47;;
75772;SDS011;64381;0.000;0.000;2023-05-06T08:03:37;2.90;;;1.30;;
75772;SDS011;64381;0.000;0.000;2023-05-06T08:06:02;2.67;;;1.10;;
75772;SDS011;64381;0.000;0.000;2023-05-06T08:08:28;2.60;;;1.20;;
75772;SDS011;64381;0.000;0.000;2023-05-06T08:10:54;2.70;;;1.20;;
75772;SDS011;64381;0.000;0.000;2023-05-06T08:13:19;2.75;;;1.20;;
75772;SDS011;64381;0.000;0.000;2023-05-06T08:15:44;2.70;;;1.20;;
75772;SDS011;64381;0.000;0.000;2023-05-06T08:18:10;2.70;;;1.13;;
75772;SDS011;64381;0.000;0.000;2023-05-06T08:20:35;2.70;;;1.10;;
75772;SDS011;64381;0.000;0.000;2023-05-06T08:23:00;2.80;;;1.30;;
75772;SDS011;64381;0.000;0.000;2023-05-06T08:25:25;2.80;;;1.23;;
75772;SDS011;64381;0.000;0.000;2023-05-06T08:27:50;3.00;;;1.20;;
75772;SDS011;64381;0.000;0.000;2023-05-06T08:30:16;2.63;;;1.13;;
75772;SDS011;64381;0.000;0.000;2023-05-06T08:32:41;2.50;;;1.10;;
75772;SDS011;64381;0.000;0.000;2023-05-06T08:35:06;2.47;;;1.03;;
75772;SDS011;64381;0.000;0.000;2023-05-06T08:37:32;2.63;;;1.20;;
75772;SDS011;64381;0.000;0.000;2023-05-06T08:39:57;2.60;;;1.13;;
75772;SDS011;64381;0.000;0.000;2023-05-06T08:42:23;2.80;;;1.10;;
75772;SDS011;64381;0.000;0.000;2023-05-06T08:44:50;2.67;;;1.20;;
75772;SDS011;64381;0.000;0.000;2023-05-06T08:47:15;2.80;;;1.27;;
75772;SDS011;64381;0.000;0.000;2023-05-06T08:49:41;2.60;;;1.10;;
75772;SDS011;64381;0.000;0.000;2023-05-06T08:52:06;2.50;;;1.10;;
75772;SDS011;64381;0.000;0.000;2023-05-06T08:54:32;3.35;;;1.10;;
75772;SDS011;64381;0.000;0.000;2023-05-06T08:56:59;2.50;;;1.03;;
75772;SDS011;64381;0.000;0.000;2023-05-06T08:59:28;2.60;;;1.05;;
75772;SDS011;64381;0.000;0.000;2023-05-06T09:01:54;3.00;;;1.10;;
75772;SDS011;64381;0.000;0.000;2023-05-06T09:04:19;2.60;;;1.20;;
75772;SDS011;64381;0.000;0.000;2023-05-06T09:06:45;2.40;;;1.17;;
75772;SDS011;64381;0.000;0.000;2023-05-06T09:09:10;2.77;;;1.30;;
75772;SDS011;64381;0.000;0.000;2023-05-06T09:11:35;2.70;;;1.30;;
75772;SDS011;64381;0.000;0.000;2023-05-06T09:14:14;2.70;;;1.30;;
75772;SDS011;64381;0.000;0.000;2023-05-06T09:16:44;3.17;;;1.38;;
75772;SDS011;64381;0.000;0.000;2023-05-06T09:19:11;2.73;;;1.13;;
75772;SDS011;64381;0.000;0.000;2023-05-06T09:21:44;2.75;;;1.30;;
75772;SDS011;64381;0.000;0.000;2023-05-06T09:24:13;2.50;;;1.10;;
75772;SDS011;64381;0.000;0.000;2023-05-06T09:26:40;2.42;;;1.05;;
75772;SDS011;64381;0.000;0.000;2023-05-06T09:29:06;2.70;;;1.10;;
75772;SDS011;64381;0.000;0.000;2023-05-06T09:31:31;2.93;;;1.10;;
75772;SDS011;64381;0.000;0.000;2023-05-06T09:33:57;2.70;;;1.10;;
75772;SDS011;64381;0.000;0.000;2023-05-06T09:36:24;4.10;;;1.20;;
75772;SDS011;64381;0.000;0.000;2023-05-06T09:38:51;2.47;;;1.00;;
75772;SDS011;64381;0.000;0.000;2023-05-06T09:41:17;2.60;;;1.10;;
75772;SDS011;64381;0.000;0.000;2023-05-06T09:43:44;2.90;;;1.13;;
75772;SDS011;64381;0.000;0.000;2023-05-06T09:46:10;2.50;;;1.10;;
75772;SDS011;64381;0.000;0.000;2023-05-06T09:48:36;2.77;;;1.00;;
75772;SDS011;64381;0.000;0.000;2023-05-06T09:51:02;2.70;;;1.10;;
75772;SDS011;64381;0.000;0.000;2023-05-06T09:53:28;2.65;;;1.10;;
75772;SDS011;64381;0.000;0.000;2023-05-06T09:55:54;2.50;;;0.90;;
75772;SDS011;64381;0.000;0.000;2023-05-06T09:58:19;2.72;;;1.20;;
75772;SDS011;64381;0.000;0.000;2023-05-06T10:00:45;2.60;;;1.00;;
75772;SDS011;64381;0.000;0.000;2023-05-06T10:03:12;2.50;;;1.10;;
75772;SDS011;64381;0.000;0.000;2023-05-06T10:05:39;2.60;;;1.10;;
75772;SDS011;64381;0.000;0.000;2023-05-06T10:08:04;2.60;;;1.00;;
75772;SDS011;64381;0.000;0.000;2023-05-06T10:10:32;2.40;;;1.00;;
75772;SDS011;64381;0.000;0.000;2023-05-06T10:12:58;2.42;;;1.00;;
75772;SDS011;64381;0.000;0.000;2023-05-06T10:15:25;2.50;;;1.10;;
75772;SDS011;64381;0.000;0.000;2023-05-06T10:17:51;2.70;;;1.10;;
75772;SDS011;64381;0.000;0.000;2023-05-06T10:20:17;2.60;;;1.10;;
75772;SDS011;64381;0.000;0.000;2023-05-06T10:22:51;2.70;;;1.20;;
75772;SDS011;64381;0.000;0.000;2023-05-06T10:25:34;2.42;;;1.05;;
75772;SDS011;64381;0.000;0.000;2023-05-06T10:28:03;2.77;;;1.10;;
75772;SDS011;64381;0.000;0.000;2023-05-06T10:30:29;2.80;;;1.10;;
75772;SDS011;64381;0.000;0.000;2023-05-06T10:32:58;2.55;;;1.10;;
75772;SDS011;64381;0.000;0.000;2023-05-06T10:38:27;2.72;;;1.10;;
75772;SDS011;64381;0.000;0.000;2023-05-06T10:40:54;2.70;;;1.00;;
75772;SDS011;64381;0.000;0.000;2023-05-06T10:43:25;2.53;;;1.10;;
75772;SDS011;64381;0.000;0.000;2023-05-06T10:48:27;2.33;;;0.90;;
75772;SDS011;64381;0.000;0.000;2023-05-06T10:56:28;2.55;;;1.02;;
75772;SDS011;64381;0.000;0.000;2023-05-06T10:58:55;2.80;;;1.30;;
75772;SDS011;64381;0.000;0.000;2023-05-06T11:01:21;2.65;;;1.15;;
75772;SDS011;64381;0.000;0.000;2023-05-06T11:03:50;2.72;;;1.30;;
75772;SDS011;64381;0.000;0.000;2023-05-06T11:06:30;2.77;;;1.10;;
75772;SDS011;64381;0.000;0.000;2023-05-06T11:08:56;2.47;;;1.00;;
75772;SDS011;64381;0.000;0.000;2023-05-06T11:14:31;2.25;;;0.88;;
75772;SDS011;64381;0.000;0.000;2023-05-06T11:17:27;2.60;;;1.20;;
75772;SDS011;64381;0.000;0.000;2023-05-06T11:22:42;2.50;;;1.10;;
75772;SDS011;64381;0.000;0.000;2023-05-06T11:25:07;2.60;;;1.10;;
75772;SDS011;64381;0.000;0.000;2023-05-06T11:27:33;3.37;;;1.30;;
75772;SDS011;64381;0.000;0.000;2023-05-06T11:30:00;2.92;;;1.15;;
75772;SDS011;64381;0.000;0.000;2023-05-06T11:32:25;2.53;;;1.10;;
75772;SDS011;64381;0.000;0.000;2023-05-06T11:34:53;2.38;;;1.08;;
75772;SDS011;64381;0.000;0.000;2023-05-06T11:37:27;2.38;;;0.95;;
75772;SDS011;64381;0.000;0.000;2023-05-06T11:39:53;3.17;;;1.10;;
75772;SDS011;64381;0.000;0.000;2023-05-06T11:42:25;2.70;;;1.10;;
75772;SDS011;64381;0.000;0.000;2023-05-06T11:44:54;2.50;;;1.00;;
75772;SDS011;64381;0.000;0.000;2023-05-06T11:47:21;2.85;;;1.20;;
75772;SDS011;64381;0.000;0.000;2023-05-06T11:49:49;2.65;;;1.10;;
75772;SDS011;64381;0.000;0.000;2023-05-06T11:52:18;2.60;;;1.08;;
75772;SDS011;64381;0.000;0.000;2023-05-06T11:54:43;2.47;;;1.10;;
75772;SDS011;64381;0.000;0.000;2023-05-06T11:57:09;2.47;;;1.00;;
75772;SDS011;64381;0.000;0.000;2023-05-06T11:59:35;2.50;;;1.10;;
75772;SDS011;64381;0.000;0.000;2023-05-06T12:02:05;2.60;;;1.17;;
75772;SDS011;64381;0.000;0.000;2023-05-06T12:04:38;2.60;;;1.00;;
75772;SDS011;64381;0.000;0.000;2023-05-06T12:07:05;2.40;;;1.10;;
75772;SDS011;64381;0.000;0.000;2023-05-06T12:09:31;2.58;;;1.00;;
75772;SDS011;64381;0.000;0.000;2023-05-06T12:11:57;3.03;;;1.05;;
75772;SDS011;64381;0.000;0.000;2023-05-06T12:14:22;2.70;;;1.10;;
75772;SDS011;64381;0.000;0.000;2023-05-06T12:16:48;2.70;;;1.10;;
75772;SDS011;64381;0.000;0.000;2023-05-06T12:19:16;3.10;;;1.10;;
75772;SDS011;64381;0.000;0.000;2023-05-06T12:21:42;2.53;;;1.02;;
75772;SDS011;64381;0.000;0.000;2023-05-06T12:24:07;2.50;;;1.10;;
75772;SDS011;64381;0.000;0.000;2023-05-06T12:26:45;2.57;;;1.00;;
75772;SDS011;64381;0.000;0.000;2023-05-06T12:29:12;2.60;;;1.20;;
75772;SDS011;64381;0.000;0.000;2023-05-06T12:31:41;2.55;;;1.17;;
75772;SDS011;64381;0.000;0.000;2023-05-06T12:34:08;2.60;;;1.25;;
75772;SDS011;64381;0.000;0.000;2023-05-06T12:36:37;2.60;;;1.20;;
75772;SDS011;64381;0.000;0.000;2023-05-06T12:39:03;2.55;;;1.13;;
75772;SDS011;64381;0.000;0.000;2023-05-06T12:41:35;2.70;;;1.20;;
75772;SDS011;64381;0.000;0.000;2023-05-06T12:46:59;2.40;;;1.08;;
75772;SDS011;64381;0.000;0.000;2023-05-06T12:49:25;2.83;;;1.10;;
75772;SDS011;64381;0.000;0.000;2023-05-06T12:52:06;2.40;;;1.10;;
75772;SDS011;64381;0.000;0.000;2023-05-06T12:54:34;2.60;;;1.02;;
75772;SDS011;64381;0.000;0.000;2023-05-06T12:57:01;2.42;;;1.02;;
75772;SDS011;64381;0.000;0.000;2023-05-06T12:59:26;2.57;;;1.10;;
75772;SDS011;64381;0.000;0.000;2023-05-06T13:01:51;2.60;;;1.10;;
75772;SDS011;64381;0.000;0.000;2023-05-06T13:04:17;2.50;;;1.07;;
75772;SDS011;64381;0.000;0.000;2023-05-06T13:06:42;2.60;;;1.10;;
75772;SDS011;64381;0.000;0.000;2023-05-06T13:09:07;2.70;;;1.00;;
75772;SDS011;64381;0.000;0.000;2023-05-06T13:11:32;2.50;;;1.10;;
75772;SDS011;64381;0.000;0.000;2023-05-06T13:13:58;2.70;;;1.10;;
75772;SDS011;64381;0.000;0.000;2023-05-06T13:16:23;3.33;;;1.30;;
75772;SDS011;64381;0.000;0.000;2023-05-06T13:18:48;2.67;;;1.13;;
75772;SDS011;64381;0.000;0.000;2023-05-06T13:21:13;2.70;;;1.20;;
75772;SDS011;64381;0.000;0.000;2023-05-06T13:23:39;2.63;;;1.00;;
75772;SDS011;64381;0.000;0.000;2023-05-06T13:26:04;2.70;;;1.20;;
75772;SDS011;64381;0.000;0.000;2023-05-06T13:28:29;2.50;;;1.10;;
75772;SDS011;64381;0.000;0.000;2023-05-06T13:30:55;2.83;;;1.13;;
75772;SDS011;64381;0.000;0.000;2023-05-06T13:33:21;2.60;;;1.07;;
75772;SDS011;64381;0.000;0.000;2023-05-06T13:35:46;2.60;;;1.10;;
75772;SDS011;64381;0.000;0.000;2023-05-06T13:38:11;2.57;;;1.00;;
75772;SDS011;64381;0.000;0.000;2023-05-06T13:40:36;2.50;;;1.10;;
75772;SDS011;64381;0.000;0.000;2023-05-06T13:43:01;2.40;;;1.00;;
75772;SDS011;64381;0.000;0.000;2023-05-06T13:45:27;2.50;;;1.10;;
75772;SDS011;64381;0.000;0.000;2023-05-06T13:47:52;2.50;;;1.07;;
75772;SDS011;64381;0.000;0.000;2023-05-06T13:50:17;2.33;;;1.10;;
75772;SDS011;64381;0.000;0.000;2023-05-06T13:52:42;2.50;;;1.00;;
75772;SDS011;64381;0.000;0.000;2023-05-06T13:55:07;2.87;;;1.13;;
75772;SDS011;64381;0.000;0.000;2023-05-06T13:57:33;2.50;;;1.00;;
75772;SDS011;64381;0.000;0.000;2023-05-06T13:59:58;2.77;;;1.10;;
75772;SDS011;64381;0.000;0.000;2023-05-06T14:02:23;2.50;;;1.00;;
75772;SDS011;64381;0.000;0.000;2023-05-06T14:04:48;2.30;;;1.00;;
75772;SDS011;64381;0.000;0.000;2023-05-06T14:07:13;2.33;;;1.00;;
75772;SDS011;64381;0.000;0.000;2023-05-06T14:09:39;2.77;;;1.00;;
75772;SDS011;64381;0.000;0.000;2023-05-06T14:12:04;2.67;;;1.03;;
75772;SDS011;64381;0.000;0.000;2023-05-06T14:14:29;2.45;;;1.10;;
75772;SDS011;64381;0.000;0.000;2023-05-06T14:16:54;3.15;;;1.00;;
75772;SDS011;64381;0.000;0.000;2023-05-06T14:19:20;2.50;;;1.20;;
75772;SDS011;64381;0.000;0.000;2023-05-06T14:21:45;2.40;;;1.10;;
75772;SDS011;64381;0.000;0.000;2023-05-06T14:24:10;2.70;;;1.00;;
75772;SDS011;64381;0.000;0.000;2023-05-06T14:26:35;2.60;;;1.10;;
75772;SDS011;64381;0.000;0.000;2023-05-06T14:29:01;2.40;;;1.07;;
75772;SDS011;64381;0.000;0.000;2023-05-06T14:31:26;2.83;;;1.00;;
75772;SDS011;64381;0.000;0.000;2023-05-06T14:33:51;2.80;;;1.20;;
75772;SDS011;64381;0.000;0.000;2023-05-06T14:36:17;2.60;;;1.23;;
75772;SDS011;64381;0.000;0.000;2023-05-06T14:38:43;2.70;;;0.80;;
75772;SDS011;64381;0.000;0.000;2023-05-06T14:41:08;2.50;;;1.00;;
75772;SDS011;64381;0.000;0.000;2023-05-06T14:43:33;2.57;;;0.90;;
75772;SDS011;64381;0.000;0.000;2023-05-06T14:45:58;2.77;;;1.20;;
75772;SDS011;64381;0.000;0.000;2023-05-06T14:48:24;2.33;;;0.93;;
75772;SDS011;64381;0.000;0.000;2023-05-06T14:50:49;2.83;;;1.00;;
75772;SDS011;64381;0.000;0.000;2023-05-06T14:53:14;2.73;;;1.10;;
75772;SDS011;64381;0.000;0.000;2023-05-06T14:55:39;2.37;;;0.90;;
75772;SDS011;64381;0.000;0.000;2023-05-06T14:58:04;2.33;;;0.80;;
75772;SDS011;64381;0.000;0.000;2023-05-06T15:00:30;2.50;;;1.00;;
75772;SDS011;64381;0.000;0.000;2023-05-06T15:02:55;2.63;;;1.20;;
75772;SDS011;64381;0.000;0.000;2023-05-06T15:05:20;2.60;;;0.97;;
75772;SDS011;64381;0.000;0.000;2023-05-06T15:07:45;2.53;;;1.00;;
75772;SDS011;64381;0.000;0.000;2023-05-06T15:10:10;3.00;;;1.10;;
75772;SDS011;64381;0.000;0.000;2023-05-06T15:12:36;2.50;;;1.00;;
75772;SDS011;64381;0.000;0.000;2023-05-06T15:15:01;2.47;;;1.00;;
75772;SDS011;64381;0.000;0.000;2023-05-06T15:17:26;2.50;;;1.03;;
75772;SDS011;64381;0.000;0.000;2023-05-06T15:19:51;2.50;;;1.05;;